createdAt,value
2018-04-01T00:00:03.958Z,13.74
2018-04-01T00:02:31.633Z,13.27
2018-04-01T00:04:59.279Z,13.37
2018-04-01T00:07:27.590Z,13.28
2018-04-01T00:09:55.302Z,13.34
2018-04-01T00:12:22.943Z,13.14
2018-04-01T00:14:50.584Z,13.28
2018-04-01T00:17:18.246Z,13.24
2018-04-01T00:19:45.982Z,13.52
2018-04-01T00:22:13.657Z,13.40
2018-04-01T00:24:41.341Z,13.52
2018-04-01T00:27:09.005Z,13.73
2018-04-01T00:29:36.681Z,13.55
2018-04-01T00:32:04.365Z,13.37
2018-04-01T00:34:32.065Z,13.11
2018-04-01T00:36:59.697Z,12.98
2018-04-01T00:39:27.361Z,13.18
2018-04-01T00:41:55.065Z,13.02
2018-04-01T00:44:22.718Z,13.11
2018-04-01T00:46:50.350Z,13.29
2018-04-01T00:49:17.986Z,13.24
2018-04-01T00:51:45.617Z,13.32
2018-04-01T00:54:13.303Z,13.44
2018-04-01T00:56:40.945Z,13.65
2018-04-01T00:59:08.712Z,13.69
2018-04-01T01:01:36.414Z,13.87
2018-04-01T01:04:04.060Z,13.82
2018-04-01T01:06:31.714Z,13.78
2018-04-01T01:08:59.410Z,13.80
2018-04-01T01:11:27.213Z,13.94
2018-04-01T01:13:54.917Z,13.98
2018-04-01T01:16:22.553Z,13.89
2018-04-01T01:18:50.203Z,14.06
2018-04-01T01:21:17.954Z,13.96
2018-04-01T01:23:45.834Z,14.24
2018-04-01T01:26:13.466Z,14.19
2018-04-01T01:28:41.118Z,14.12
2018-04-01T01:31:08.789Z,14.00
2018-04-01T01:33:36.449Z,13.88
2018-04-01T01:36:04.091Z,14.19
2018-04-01T01:38:31.771Z,14.31
2018-04-01T01:40:59.456Z,14.08
2018-04-01T01:43:27.229Z,14.02
2018-04-01T01:45:54.885Z,13.90
2018-04-01T01:48:22.530Z,13.74
2018-04-01T01:50:50.242Z,13.79
2018-04-01T01:53:17.919Z,14.08
2018-04-01T01:55:45.585Z,14.10
2018-04-01T01:58:13.315Z,13.98
2018-04-01T02:00:41.019Z,13.79
2018-04-01T02:03:08.654Z,13.52
2018-04-01T02:05:36.355Z,13.44
2018-04-01T02:08:04.001Z,13.32
2018-04-01T02:10:31.835Z,13.20
2018-04-01T02:12:59.469Z,13.42
2018-04-01T02:15:27.142Z,13.47
2018-04-01T02:17:54.778Z,13.38
2018-04-01T02:20:22.435Z,13.45
2018-04-01T02:22:50.146Z,13.31
2018-04-01T02:25:17.823Z,13.37
2018-04-01T02:27:45.573Z,13.27
2018-04-01T02:30:13.287Z,13.35
2018-04-01T02:32:40.999Z,13.57
2018-04-01T02:35:08.667Z,13.32
2018-04-01T02:37:36.314Z,13.23
2018-04-01T02:40:03.954Z,13.19
2018-04-01T02:42:31.648Z,13.36
2018-04-01T02:44:59.292Z,13.34
2018-04-01T02:47:27.183Z,13.33
2018-04-01T02:49:54.937Z,13.22
2018-04-01T02:52:22.569Z,13.43
2018-04-01T02:54:50.265Z,13.47
2018-04-01T02:57:18.040Z,13.63
2018-04-01T02:59:45.677Z,13.59
2018-04-01T03:02:13.354Z,13.64
2018-04-01T03:04:41.164Z,13.93
2018-04-01T03:07:08.892Z,14.01
2018-04-01T03:09:36.597Z,14.29
2018-04-01T03:12:04.275Z,14.55
2018-04-01T03:14:31.967Z,14.64
2018-04-01T03:16:59.617Z,14.82
2018-04-01T03:19:27.285Z,15.01
2018-04-01T03:21:55.068Z,15.02
2018-04-01T03:24:22.791Z,14.95
2018-04-01T03:26:50.438Z,14.87
2018-04-01T03:29:18.365Z,14.97
2018-04-01T03:31:46.134Z,15.04
2018-04-01T03:34:13.788Z,15.36
2018-04-01T03:36:41.490Z,15.15
2018-04-01T03:39:09.133Z,14.94
2018-04-01T03:41:36.812Z,14.62
2018-04-01T03:44:04.544Z,14.63
2018-04-01T03:46:32.195Z,14.83
2018-04-01T03:48:59.865Z,14.72
2018-04-01T03:51:27.507Z,14.50
2018-04-01T03:53:55.955Z,14.54
2018-04-01T03:56:23.594Z,14.39
2018-04-01T03:58:51.283Z,14.34
2018-04-01T04:01:18.990Z,14.33
2018-04-01T04:03:46.666Z,14.47
2018-04-01T04:06:14.362Z,14.85
2018-04-01T04:08:42.094Z,14.63
2018-04-01T04:11:09.794Z,14.95
2018-04-01T04:13:37.482Z,14.86
2018-04-01T04:16:05.118Z,14.87
2018-04-01T04:18:32.773Z,14.69
2018-04-01T04:21:00.478Z,14.89
2018-04-01T04:23:28.145Z,14.91
2018-04-01T04:25:55.790Z,14.73
2018-04-01T04:28:23.594Z,15.12
2018-04-01T04:30:51.364Z,15.09
2018-04-01T04:33:18.997Z,15.20
2018-04-01T04:35:46.683Z,15.17
2018-04-01T04:38:14.356Z,15.05
2018-04-01T04:40:42.207Z,15.47
2018-04-01T04:43:09.890Z,15.77
2018-04-01T04:45:37.560Z,16.45
2018-04-01T04:48:05.520Z,16.15
2018-04-01T04:50:33.207Z,16.63
2018-04-01T04:53:00.850Z,16.81
2018-04-01T04:55:28.502Z,16.36
2018-04-01T04:57:56.170Z,16.71
2018-04-01T05:00:23.811Z,16.91
2018-04-01T05:02:51.535Z,17.40
2018-04-01T05:05:19.165Z,17.17
2018-04-01T05:07:46.873Z,17.66
2018-04-01T05:10:14.697Z,17.81
2018-04-01T05:12:42.451Z,17.99
2018-04-01T05:15:10.931Z,17.56
2018-04-01T05:17:38.571Z,17.34
2018-04-01T05:20:06.355Z,17.55
2018-04-01T05:22:34.222Z,17.65
2018-04-01T05:25:01.892Z,17.83
2018-04-01T05:27:29.561Z,17.79
2018-04-01T05:29:57.268Z,17.73
2018-04-01T05:32:24.930Z,18.33
2018-04-01T05:34:52.569Z,18.26
2018-04-01T05:37:20.219Z,18.32
2018-04-01T05:39:47.853Z,18.82
2018-04-01T05:42:15.561Z,19.21
2018-04-01T05:44:43.225Z,18.71
2018-04-01T05:47:10.881Z,18.61
2018-04-01T05:49:38.517Z,18.61
2018-04-01T05:52:06.148Z,18.71
2018-04-01T05:54:34.055Z,19.29
2018-04-01T05:57:01.709Z,19.08
2018-04-01T05:59:29.374Z,19.64
2018-04-01T06:01:57.058Z,19.37
2018-04-01T06:04:24.807Z,19.20
2018-04-01T06:06:52.497Z,19.44
2018-04-01T06:09:20.198Z,19.73
2018-04-01T06:11:47.998Z,19.90
2018-04-01T06:14:15.676Z,20.39
2018-04-01T06:16:43.417Z,20.31
2018-04-01T06:19:11.055Z,19.91
2018-04-01T06:21:38.759Z,20.20
2018-04-01T06:24:06.393Z,19.64
2018-04-01T06:26:34.074Z,19.14
2018-04-01T06:29:01.723Z,19.07
2018-04-01T06:31:29.407Z,19.45
2018-04-01T06:33:57.207Z,19.53
2018-04-01T06:36:24.857Z,19.69
2018-04-01T06:38:52.533Z,19.22
2018-04-01T06:41:20.209Z,19.29
2018-04-01T06:43:47.863Z,19.18
2018-04-01T06:46:15.566Z,19.38
2018-04-01T06:48:43.282Z,19.42
2018-04-01T06:51:11.015Z,19.24
2018-04-01T06:53:38.645Z,19.31
2018-04-01T06:56:06.282Z,19.18
2018-04-01T06:58:33.977Z,19.28
2018-04-01T07:01:01.666Z,19.22
2018-04-01T07:03:29.302Z,19.39
2018-04-01T07:05:56.932Z,19.28
2018-04-01T07:08:24.582Z,19.15
2018-04-01T07:10:52.249Z,19.24
2018-04-01T07:13:19.921Z,19.46
2018-04-01T07:15:47.557Z,19.54
2018-04-01T07:18:15.202Z,19.45
2018-04-01T07:20:42.915Z,19.46
2018-04-01T07:23:10.587Z,19.67
2018-04-01T07:25:38.240Z,20.15
2018-04-01T07:28:05.958Z,19.73
2018-04-01T07:30:33.828Z,19.94
2018-04-01T07:33:01.515Z,20.01
2018-04-01T07:35:29.162Z,20.12
2018-04-01T07:37:56.826Z,19.95
2018-04-01T07:40:24.504Z,19.98
2018-04-01T07:42:52.161Z,20.04
2018-04-01T07:45:19.878Z,20.16
2018-04-01T07:47:47.530Z,20.78
2018-04-01T07:50:15.176Z,20.35
2018-04-01T07:52:42.893Z,20.53
2018-04-01T07:55:10.762Z,20.58
2018-04-01T07:57:38.433Z,20.80
2018-04-01T08:00:06.110Z,20.59
2018-04-01T08:02:33.748Z,20.77
2018-04-01T08:05:02.030Z,20.87
2018-04-01T08:07:29.723Z,20.91
2018-04-01T08:09:57.353Z,20.76
2018-04-01T08:12:25.164Z,20.56
2018-04-01T08:14:52.810Z,20.61
2018-04-01T08:17:20.485Z,20.86
2018-04-01T08:19:48.208Z,20.83
2018-04-01T08:22:15.879Z,20.48
2018-04-01T08:24:43.604Z,20.59
2018-04-01T08:27:11.254Z,20.95
2018-04-01T08:29:38.885Z,20.80
2018-04-01T08:32:06.625Z,20.91
2018-04-01T08:34:34.266Z,20.88
2018-04-01T08:37:02.156Z,20.93
2018-04-01T08:39:29.910Z,20.76
2018-04-01T08:41:57.550Z,20.94
2018-04-01T08:44:25.223Z,20.69
2018-04-01T08:46:52.890Z,20.67
2018-04-01T08:49:20.540Z,20.65
2018-04-01T08:51:48.337Z,20.53
2018-04-01T08:54:16.273Z,20.73
2018-04-01T08:56:44.026Z,20.68
2018-04-01T08:59:11.749Z,20.89
2018-04-01T09:01:39.398Z,20.92
2018-04-01T09:04:07.037Z,20.91
2018-04-01T09:06:34.687Z,20.87
2018-04-01T09:09:02.335Z,21.44
2018-04-01T09:11:30.155Z,20.91
2018-04-01T09:13:57.827Z,20.74
2018-04-01T09:16:25.498Z,20.63
2018-04-01T09:18:53.243Z,20.71
2018-04-01T09:21:20.881Z,21.03
2018-04-01T09:23:48.586Z,20.95
2018-04-01T09:26:16.217Z,21.22
2018-04-01T09:28:43.893Z,20.90
2018-04-01T09:31:11.659Z,20.76
2018-04-01T09:33:39.293Z,21.00
2018-04-01T09:36:06.947Z,20.98
2018-04-01T09:38:34.630Z,21.79
2018-04-01T09:41:02.410Z,21.14
2018-04-01T09:43:30.075Z,21.25
2018-04-01T09:45:57.738Z,20.85
2018-04-01T09:48:26.185Z,20.61
2018-04-01T09:50:53.875Z,20.71
2018-04-01T09:53:21.652Z,20.75
2018-04-01T09:55:49.295Z,21.46
2018-04-01T09:58:16.953Z,21.26
2018-04-01T10:03:54.246Z,21.21
2018-04-01T10:06:26.031Z,21.71
2018-04-01T10:08:55.385Z,21.99
2018-04-01T10:11:24.651Z,21.56
2018-04-01T10:13:53.830Z,21.52
2018-04-01T10:16:23.302Z,21.76
2018-04-01T10:18:52.503Z,21.60
2018-04-01T10:21:21.684Z,21.52
2018-04-01T10:23:51.010Z,21.42
2018-04-01T10:26:20.817Z,22.00
2018-04-01T10:28:52.175Z,22.25
2018-04-01T10:31:21.699Z,21.96
2018-04-01T10:33:50.886Z,21.70
2018-04-01T10:36:19.954Z,21.96
2018-04-01T10:38:49.063Z,22.02
2018-04-01T10:41:18.217Z,22.10
2018-04-01T10:43:47.297Z,21.70
2018-04-01T10:46:16.350Z,21.59
2018-04-01T10:48:45.451Z,21.28
2018-04-01T10:51:14.568Z,21.44
2018-04-01T10:53:43.743Z,21.76
2018-04-01T10:56:14.942Z,21.87
2018-04-01T10:58:42.658Z,22.22
2018-04-01T11:01:10.438Z,21.94
2018-04-01T11:03:38.134Z,22.28
2018-04-01T11:06:05.761Z,22.14
2018-04-01T11:08:34.065Z,21.91
2018-04-01T11:11:01.700Z,21.47
2018-04-01T11:13:29.391Z,21.44
2018-04-01T11:15:57.044Z,21.42
2018-04-01T11:18:24.831Z,21.33
2018-04-01T11:20:52.515Z,20.96
2018-04-01T11:23:20.197Z,20.34
2018-04-01T11:25:47.916Z,20.40
2018-04-01T11:28:15.608Z,20.26
2018-04-01T11:30:43.348Z,20.17
2018-04-01T11:33:11.156Z,19.13
2018-04-01T11:35:38.880Z,19.26
2018-04-01T11:38:06.558Z,18.25
2018-04-01T11:40:34.251Z,18.42
2018-04-01T11:43:01.893Z,18.34
2018-04-01T11:45:29.535Z,18.55
2018-04-01T11:47:57.173Z,18.42
2018-04-01T11:50:24.806Z,18.46
2018-04-01T11:52:52.510Z,18.45
2018-04-01T11:55:20.155Z,18.64
2018-04-01T11:57:47.845Z,18.09
2018-04-01T12:00:15.701Z,18.23
2018-04-01T12:02:43.995Z,18.39
2018-04-01T12:05:11.648Z,18.41
2018-04-01T12:07:39.614Z,18.44
2018-04-01T12:10:07.259Z,18.60
2018-04-01T12:12:34.907Z,18.87
2018-04-01T12:15:02.608Z,18.54
2018-04-01T12:17:30.313Z,18.24
2018-04-01T12:19:57.947Z,18.20
2018-04-01T12:22:25.689Z,18.10
2018-04-01T12:24:53.327Z,17.79
2018-04-01T12:27:21.000Z,17.52
2018-04-01T12:29:48.706Z,16.05
2018-04-01T12:32:16.358Z,15.52
2018-04-01T12:34:43.985Z,15.00
2018-04-01T12:37:11.643Z,14.24
2018-04-01T12:39:39.306Z,13.84
2018-04-01T12:42:07.106Z,13.65
2018-04-01T12:44:34.741Z,13.19
2018-04-01T12:47:02.397Z,12.97
2018-04-01T12:49:30.090Z,12.86
2018-04-01T12:51:57.757Z,12.86
2018-04-01T12:54:25.433Z,12.89
2018-04-01T12:56:53.149Z,12.91
2018-04-01T12:59:20.801Z,12.93
2018-04-01T13:01:48.505Z,13.16
2018-04-01T13:04:16.228Z,13.92
2018-04-01T13:06:43.857Z,13.99
2018-04-01T13:09:11.540Z,14.12
2018-04-01T13:11:39.183Z,14.31
2018-04-01T13:14:06.812Z,14.47
2018-04-01T13:16:34.584Z,14.66
2018-04-01T13:19:02.222Z,14.97
2018-04-01T13:21:29.907Z,15.26
2018-04-01T13:23:57.570Z,15.20
2018-04-01T13:26:25.219Z,15.20
2018-04-01T13:28:52.915Z,15.43
2018-04-01T13:31:20.596Z,15.93
2018-04-01T13:33:48.254Z,16.05
2018-04-01T13:36:15.910Z,16.06
2018-04-01T13:38:43.545Z,16.19
2018-04-01T13:41:11.235Z,16.67
2018-04-01T13:43:38.932Z,16.53
2018-04-01T13:46:06.590Z,16.42
2018-04-01T13:48:34.262Z,15.87
2018-04-01T13:51:01.943Z,15.56
2018-04-01T13:53:29.643Z,15.83
2018-04-01T13:55:58.394Z,15.71
2018-04-01T13:58:26.071Z,15.97
2018-04-01T14:00:53.764Z,16.41
2018-04-01T14:03:21.506Z,15.95
2018-04-01T14:05:49.162Z,16.11
2018-04-01T14:08:16.869Z,16.27
2018-04-01T14:10:44.496Z,16.91
2018-04-01T14:13:12.125Z,16.53
2018-04-01T14:15:39.811Z,16.94
2018-04-01T14:18:07.573Z,16.88
2018-04-01T14:20:35.244Z,16.76
2018-04-01T14:23:02.922Z,17.20
2018-04-01T14:25:30.674Z,17.48
2018-04-01T14:27:58.334Z,18.40
2018-04-01T14:30:26.006Z,18.16
2018-04-01T14:32:53.662Z,18.23
2018-04-01T14:35:21.316Z,18.61
2018-04-01T14:37:48.986Z,18.80
2018-04-01T14:40:16.642Z,19.39
2018-04-01T14:42:44.279Z,18.53
2018-04-01T14:45:11.976Z,18.76
2018-04-01T14:47:39.633Z,18.89
2018-04-01T14:50:07.311Z,19.76
2018-04-01T14:52:34.965Z,20.93
2018-04-01T14:55:03.390Z,22.06
2018-04-01T14:57:31.111Z,23.17
2018-04-01T14:59:58.875Z,20.72
2018-04-01T15:02:26.505Z,20.45
2018-04-01T15:04:54.205Z,20.27
2018-04-01T15:07:21.958Z,21.29
2018-04-01T15:09:49.599Z,20.68
2018-04-01T15:12:17.251Z,21.50
2018-04-01T15:14:44.931Z,24.04
2018-04-01T15:17:12.570Z,25.06
2018-04-01T15:19:40.422Z,22.47
2018-04-01T15:22:08.150Z,22.07
2018-04-01T15:24:35.976Z,22.65
2018-04-01T15:27:03.624Z,20.78
2018-04-01T15:29:31.297Z,19.32
2018-04-01T15:31:58.961Z,17.67
2018-04-01T15:34:26.618Z,16.03
2018-04-01T15:36:54.264Z,15.79
2018-04-01T15:39:21.966Z,15.22
2018-04-01T15:41:49.641Z,15.36
2018-04-01T15:44:17.291Z,16.04
2018-04-01T15:46:44.971Z,15.71
2018-04-01T15:49:12.760Z,16.14
2018-04-01T15:51:40.389Z,15.82
2018-04-01T15:54:08.176Z,15.40
2018-04-01T15:56:35.809Z,15.16
2018-04-01T15:59:03.503Z,15.04
2018-04-01T16:01:31.234Z,14.83
2018-04-01T16:03:58.888Z,14.93
2018-04-01T16:06:26.530Z,14.44
2018-04-01T16:08:54.234Z,14.69
2018-04-01T16:11:22.016Z,14.40
2018-04-01T16:13:49.716Z,14.74
2018-04-01T16:16:17.332Z,14.58
2018-04-01T16:18:45.043Z,14.44
2018-04-01T16:21:12.731Z,14.42
2018-04-01T16:23:40.394Z,14.28
2018-04-01T16:26:08.030Z,14.36
2018-04-01T16:28:35.761Z,14.23
2018-04-01T16:31:03.392Z,13.99
2018-04-01T16:33:31.062Z,14.14
2018-04-01T16:35:58.727Z,14.01
2018-04-01T16:38:26.447Z,14.20
2018-04-01T16:40:54.167Z,14.64
2018-04-01T16:43:21.813Z,14.14
2018-04-01T16:45:49.463Z,14.08
2018-04-01T16:48:17.369Z,14.46
2018-04-01T16:50:45.016Z,14.29
2018-04-01T16:53:12.778Z,14.33
2018-04-01T16:55:40.423Z,14.70
2018-04-01T16:58:08.110Z,14.50
2018-04-01T17:00:35.789Z,13.98
2018-04-01T17:03:03.546Z,14.02
2018-04-01T17:05:31.261Z,13.75
2018-04-01T17:07:58.958Z,14.07
2018-04-01T17:10:26.638Z,14.08
2018-04-01T17:12:54.273Z,13.89
2018-04-01T17:15:21.963Z,14.06
2018-04-01T17:17:49.726Z,13.96
2018-04-01T17:20:17.399Z,13.59
2018-04-01T17:22:45.152Z,13.44
2018-04-01T17:25:12.819Z,13.28
2018-04-01T17:27:40.505Z,13.29
2018-04-01T17:30:08.148Z,13.41
2018-04-01T17:32:35.815Z,13.32
2018-04-01T17:35:03.460Z,13.33
2018-04-01T17:37:31.106Z,13.38
2018-04-01T17:39:58.777Z,13.53
2018-04-01T17:42:26.484Z,13.59
2018-04-01T17:44:54.117Z,13.36
2018-04-01T17:47:21.807Z,13.50
2018-04-01T17:49:49.441Z,13.31
2018-04-01T17:52:17.142Z,13.37
2018-04-01T17:54:44.940Z,13.42
2018-04-01T17:57:12.615Z,13.47
2018-04-01T17:59:42.110Z,13.27
2018-04-01T18:02:09.752Z,13.14
2018-04-01T18:04:37.382Z,13.40
2018-04-01T18:07:05.063Z,13.25
2018-04-01T18:09:32.729Z,13.53
2018-04-01T18:12:00.393Z,13.37
2018-04-01T18:14:28.083Z,13.15
2018-04-01T18:16:55.731Z,13.37
2018-04-01T18:19:23.413Z,13.39
2018-04-01T18:21:51.194Z,13.20
2018-04-01T18:24:18.885Z,13.45
2018-04-01T18:26:46.517Z,13.42
2018-04-01T18:29:14.213Z,13.33
2018-04-01T18:31:41.900Z,13.27
2018-04-01T18:34:09.594Z,13.42
2018-04-01T18:36:37.278Z,13.32
2018-04-01T18:39:04.931Z,13.61
2018-04-01T18:41:32.609Z,13.11
2018-04-01T18:44:00.246Z,13.08
2018-04-01T18:46:27.931Z,13.29
2018-04-01T18:48:55.579Z,13.42
2018-04-01T18:51:23.349Z,13.32
2018-04-01T18:53:51.024Z,13.55
2018-04-01T18:56:18.686Z,13.59
2018-04-01T18:58:46.456Z,13.36
2018-04-01T19:01:14.853Z,13.24
2018-04-01T19:03:42.500Z,13.25
2018-04-01T19:06:10.133Z,13.23
2018-04-01T19:08:37.814Z,13.11
2018-04-01T19:11:05.445Z,12.82
2018-04-01T19:13:33.103Z,12.69
2018-04-01T19:16:01.824Z,12.52
2018-04-01T19:18:30.365Z,12.51
2018-04-01T19:20:59.495Z,12.44
2018-04-01T19:23:28.681Z,12.35
2018-04-01T19:25:57.671Z,12.31
2018-04-01T19:28:26.696Z,12.25
2018-04-01T19:30:55.786Z,12.19
2018-04-01T19:33:25.033Z,12.06
2018-04-01T19:35:54.173Z,11.98
2018-04-01T19:38:23.359Z,11.96
2018-04-01T19:40:52.583Z,12.11
2018-04-01T19:43:21.690Z,11.88
2018-04-01T19:45:50.973Z,11.70
2018-04-01T19:48:20.094Z,11.68
2018-04-01T19:50:49.421Z,11.66
2018-04-01T19:53:18.689Z,11.97
2018-04-01T19:55:47.985Z,11.72
2018-04-01T19:58:17.154Z,11.79
2018-04-01T20:00:46.791Z,11.61
2018-04-01T20:03:15.953Z,11.65
2018-04-01T20:05:48.053Z,11.60
2018-04-01T20:08:17.351Z,11.52
2018-04-01T20:10:47.145Z,11.57
2018-04-01T20:13:16.346Z,11.44
2018-04-01T20:15:45.497Z,11.40
2018-04-01T20:18:14.563Z,11.39
2018-04-01T20:20:43.666Z,11.40
2018-04-01T20:23:12.893Z,11.40
2018-04-01T20:25:41.935Z,11.41
2018-04-01T20:28:11.214Z,11.49
2018-04-01T20:30:40.210Z,11.30
2018-04-01T20:33:12.338Z,11.36
2018-04-01T20:35:44.149Z,11.21
2018-04-01T20:38:13.246Z,11.47
2018-04-01T20:40:42.429Z,11.38
2018-04-01T20:43:11.631Z,11.12
2018-04-01T20:45:40.801Z,11.22
2018-04-01T20:48:10.119Z,11.13
2018-04-01T20:50:39.265Z,11.21
2018-04-01T20:53:08.456Z,11.25
2018-04-01T20:55:37.726Z,11.21
2018-04-01T20:58:07.051Z,11.18
2018-04-01T21:00:36.207Z,11.19
2018-04-01T21:03:05.335Z,11.14
2018-04-01T21:05:34.490Z,11.20
2018-04-01T21:08:03.585Z,11.16
2018-04-01T21:10:32.739Z,11.24
2018-04-01T21:13:01.881Z,11.38
2018-04-01T21:15:31.029Z,11.36
2018-04-01T21:18:00.123Z,11.37
2018-04-01T21:20:29.179Z,11.51
2018-04-01T21:22:58.629Z,11.57
2018-04-01T21:25:27.769Z,11.59
2018-04-01T21:27:56.786Z,11.57
2018-04-01T21:30:26.033Z,11.43
2018-04-01T21:32:55.422Z,11.32
2018-04-01T21:35:24.574Z,11.42
2018-04-01T21:37:54.115Z,11.48
2018-04-01T21:40:23.211Z,11.54
2018-04-01T21:42:52.202Z,11.68
2018-04-01T21:45:21.271Z,11.65
2018-04-01T21:47:50.668Z,11.84
2018-04-01T21:50:19.856Z,12.01
2018-04-01T21:52:49.201Z,12.02
2018-04-01T21:55:18.367Z,12.08
2018-04-01T21:57:50.989Z,12.01
2018-04-01T22:00:20.143Z,11.95
2018-04-01T22:02:49.294Z,11.83
2018-04-01T22:05:19.325Z,11.72
2018-04-01T22:07:48.601Z,11.73
2018-04-01T22:10:17.789Z,11.73
2018-04-01T22:12:46.899Z,11.92
2018-04-01T22:15:16.051Z,12.07
2018-04-01T22:17:45.309Z,12.05
2018-04-01T22:20:14.553Z,11.98
2018-04-01T22:22:58.115Z,11.93
2018-04-01T22:25:27.146Z,11.89
2018-04-01T22:27:56.383Z,11.87
2018-04-01T22:30:25.579Z,11.79
2018-04-01T22:32:54.778Z,11.76
2018-04-01T22:35:26.941Z,11.86
2018-04-01T22:37:56.074Z,11.86
2018-04-01T22:40:25.230Z,11.85
2018-04-01T22:42:54.492Z,11.80
2018-04-01T22:45:23.522Z,11.77
2018-04-01T22:47:52.810Z,11.80
2018-04-01T22:50:21.995Z,11.76
2018-04-01T22:52:51.369Z,11.76
2018-04-01T22:55:20.506Z,11.72
2018-04-01T22:57:49.722Z,11.64
2018-04-01T23:00:19.593Z,11.57
2018-04-01T23:02:48.529Z,11.53
2018-04-01T23:05:17.531Z,11.40
2018-04-01T23:07:50.057Z,11.33
2018-04-01T23:10:22.313Z,11.25
2018-04-01T23:12:51.718Z,11.22
2018-04-01T23:15:20.983Z,11.29
2018-04-01T23:17:50.139Z,11.59
2018-04-01T23:20:19.330Z,11.55
2018-04-01T23:22:48.370Z,11.56
2018-04-01T23:25:17.693Z,11.58
2018-04-01T23:27:46.897Z,11.55
2018-04-01T23:30:16.219Z,11.45
2018-04-01T23:32:45.267Z,11.42
2018-04-01T23:35:14.467Z,11.39
2018-04-01T23:37:43.605Z,11.34
2018-04-01T23:40:15.873Z,11.28
2018-04-01T23:42:44.995Z,11.28
2018-04-01T23:45:14.117Z,11.27
2018-04-01T23:47:43.446Z,11.40
2018-04-01T23:50:12.549Z,11.40
2018-04-01T23:52:42.343Z,11.40
2018-04-01T23:55:11.534Z,11.41
2018-04-01T23:57:40.521Z,11.40
